createdAt,value
2023-05-03T00:03:24.485Z,84.10
2023-05-03T00:06:47.056Z,84.20
2023-05-03T00:10:13.474Z,84.10
2023-05-03T00:13:36.105Z,84.10
2023-05-03T00:16:58.357Z,84.10
2023-05-03T00:20:20.739Z,84.00
2023-05-03T00:23:43.003Z,84.10
2023-05-03T00:27:06.658Z,84.00
2023-05-03T00:30:29.051Z,83.90
2023-05-03T00:33:51.318Z,83.80
2023-05-03T00:37:13.576Z,83.80
2023-05-03T00:40:35.851Z,83.80
2023-05-03T00:43:58.098Z,83.80
2023-05-03T00:47:20.923Z,83.90
2023-05-03T00:50:43.958Z,83.80
2023-05-03T00:54:06.658Z,83.80
2023-05-03T00:57:30.494Z,83.90
2023-05-03T01:00:53.155Z,83.70
2023-05-03T01:04:16.119Z,83.80
2023-05-03T01:08:08.214Z,83.60
2023-05-03T01:12:00.172Z,83.80
2023-05-03T01:15:43.855Z,83.70
2023-05-03T01:19:20.140Z,83.50
2023-05-03T01:23:00.702Z,83.60
2023-05-03T01:26:26.114Z,83.30
2023-05-03T01:29:48.345Z,83.30
2023-05-03T01:33:28.735Z,84.20
2023-05-03T01:36:54.082Z,83.30
2023-05-03T01:40:19.911Z,83.50
2023-05-03T01:43:43.676Z,83.30
2023-05-03T01:47:05.912Z,83.30
2023-05-03T01:50:28.340Z,83.20
2023-05-03T01:53:50.738Z,83.20
2023-05-03T01:57:13.136Z,83.30
2023-05-03T02:00:35.530Z,83.30
2023-05-03T02:03:57.877Z,83.30
2023-05-03T02:07:20.148Z,84.10
2023-05-03T02:10:44.456Z,83.30
2023-05-03T02:14:08.027Z,83.10
2023-05-03T02:17:30.277Z,83.10
2023-05-03T02:20:52.708Z,83.10
2023-05-03T02:24:15.013Z,83.30
2023-05-03T02:27:37.454Z,83.20
2023-05-03T02:30:59.746Z,83.10
2023-05-03T02:34:22.091Z,83.00
2023-05-03T02:37:47.049Z,83.00
2023-05-03T02:41:09.414Z,82.80
2023-05-03T02:44:33.604Z,82.80
2023-05-03T02:47:56.299Z,82.80
2023-05-03T02:51:20.614Z,82.80
2023-05-03T02:54:42.838Z,82.70
2023-05-03T02:58:07.843Z,82.70
2023-05-03T03:01:30.168Z,82.50
2023-05-03T03:04:52.897Z,82.70
2023-05-03T03:08:15.170Z,82.80
2023-05-03T03:11:37.658Z,82.60
2023-05-03T03:15:00.050Z,82.70
2023-05-03T03:18:23.524Z,82.80
2023-05-03T03:21:46.849Z,82.70
2023-05-03T03:25:10.292Z,82.60
2023-05-03T03:28:32.688Z,82.70
2023-05-03T03:31:59.008Z,82.70
2023-05-03T03:35:22.027Z,82.60
2023-05-03T03:38:44.610Z,82.60
2023-05-03T03:42:09.676Z,82.60
2023-05-03T03:45:32.352Z,82.50
2023-05-03T03:48:55.377Z,82.40
2023-05-03T03:52:20.281Z,82.40
2023-05-03T03:55:42.853Z,82.40
2023-05-03T03:59:05.312Z,82.30
2023-05-03T04:02:28.067Z,82.30
2023-05-03T04:05:51.137Z,82.30
2023-05-03T04:09:17.625Z,82.40
2023-05-03T04:12:40.658Z,82.40
2023-05-03T04:16:04.719Z,82.30
2023-05-03T04:19:28.682Z,82.40
2023-05-03T04:22:51.052Z,82.40
2023-05-03T04:26:30.070Z,82.30
2023-05-03T04:29:54.492Z,82.20
2023-05-03T04:33:17.409Z,82.40
2023-05-03T04:36:40.267Z,82.20
2023-05-03T04:40:08.596Z,82.20
2023-05-03T04:43:34.757Z,82.10
2023-05-03T04:46:57.331Z,82.10
2023-05-03T04:50:21.753Z,82.10
2023-05-03T04:53:46.024Z,81.90
2023-05-03T04:57:12.386Z,82.90
2023-05-03T05:00:34.773Z,82.00
2023-05-03T05:04:03.198Z,82.00
2023-05-03T05:07:34.411Z,81.90
2023-05-03T05:10:56.837Z,81.70
2023-05-03T05:14:23.608Z,81.90
2023-05-03T05:17:46.282Z,81.80
2023-05-03T05:21:08.719Z,81.70
2023-05-03T05:24:31.968Z,81.60
2023-05-03T05:27:54.376Z,81.60
2023-05-03T05:31:16.978Z,81.50
2023-05-03T05:34:45.221Z,81.60
2023-05-03T05:38:10.106Z,81.50
2023-05-03T05:41:32.907Z,81.40
2023-05-03T05:44:55.686Z,81.20
2023-05-03T05:48:18.030Z,81.00
2023-05-03T05:51:41.464Z,81.10
2023-05-03T05:55:04.604Z,81.00
2023-05-03T05:58:27.493Z,81.00
2023-05-03T06:01:51.857Z,80.70
2023-05-03T06:05:16.253Z,80.60
2023-05-03T06:08:39.093Z,80.70
2023-05-03T06:12:01.485Z,81.40
2023-05-03T06:15:26.294Z,81.40
2023-05-03T06:18:48.825Z,81.50
2023-05-03T06:22:11.377Z,81.90
2023-05-03T06:25:34.312Z,82.20
2023-05-03T06:28:56.651Z,82.40
2023-05-03T06:32:21.702Z,82.40
2023-05-03T06:35:44.248Z,82.30
2023-05-03T06:39:09.569Z,82.10
2023-05-03T06:42:31.880Z,82.00
2023-05-03T06:46:23.049Z,82.00
2023-05-03T06:49:45.442Z,82.00
2023-05-03T06:53:08.501Z,82.00
2023-05-03T06:56:30.758Z,82.00
2023-05-03T06:59:53.080Z,82.00
2023-05-03T07:03:15.539Z,81.90
2023-05-03T07:06:52.570Z,81.70
2023-05-03T07:10:18.607Z,81.70
2023-05-03T07:13:41.000Z,81.60
2023-05-03T07:17:03.241Z,81.60
2023-05-03T07:20:26.335Z,81.40
2023-05-03T07:23:48.548Z,81.30
2023-05-03T07:27:10.800Z,81.40
2023-05-03T07:30:33.026Z,81.50
2023-05-03T07:33:55.467Z,81.40
2023-05-03T07:37:17.910Z,82.40
2023-05-03T07:40:41.650Z,82.50
2023-05-03T07:44:04.084Z,83.00
2023-05-03T07:47:27.798Z,83.10
2023-05-03T07:50:50.153Z,82.50
2023-05-03T07:54:12.881Z,83.40
2023-05-03T07:57:36.271Z,83.70
2023-05-03T08:00:58.592Z,84.60
2023-05-03T08:04:20.978Z,84.60
2023-05-03T08:07:44.382Z,84.00
2023-05-03T08:11:06.700Z,83.70
2023-05-03T08:14:29.031Z,84.00
2023-05-03T08:17:51.776Z,84.30
2023-05-03T08:21:15.111Z,85.00
2023-05-03T08:24:37.853Z,85.60
2023-05-03T08:28:00.173Z,85.10
2023-05-03T08:31:22.519Z,85.10
2023-05-03T08:34:44.840Z,85.20
2023-05-03T08:38:07.553Z,85.10
2023-05-03T08:41:31.357Z,85.40
2023-05-03T08:44:54.995Z,85.50
2023-05-03T08:48:17.437Z,85.30
2023-05-03T08:51:45.721Z,85.50
2023-05-03T08:55:08.464Z,85.40
2023-05-03T08:58:33.962Z,85.40
2023-05-03T09:01:56.470Z,85.20
2023-05-03T09:05:18.978Z,85.10
2023-05-03T09:08:44.052Z,85.20
2023-05-03T09:12:06.391Z,84.90
2023-05-03T09:15:30.566Z,84.80
2023-05-03T09:19:09.361Z,84.70
2023-05-03T09:22:33.010Z,84.90
2023-05-03T09:25:55.345Z,84.90
2023-05-03T09:29:35.973Z,84.60
2023-05-03T09:32:58.348Z,84.40
2023-05-03T09:36:20.900Z,84.40
2023-05-03T09:39:45.295Z,85.50
2023-05-03T09:43:12.010Z,85.50
2023-05-03T09:46:34.268Z,85.60
2023-05-03T09:49:56.619Z,84.70
2023-05-03T09:53:21.508Z,84.60
2023-05-03T09:56:45.225Z,83.50
2023-05-03T10:00:08.834Z,83.20
2023-05-03T10:03:50.645Z,83.40
2023-05-03T10:07:17.345Z,83.70
2023-05-03T10:10:42.499Z,83.70
2023-05-03T10:14:05.626Z,83.90
2023-05-03T10:17:46.965Z,83.80
2023-05-03T10:21:18.902Z,84.40
2023-05-03T10:25:03.185Z,85.20
2023-05-03T10:28:25.974Z,85.70
2023-05-03T10:31:48.730Z,85.30
2023-05-03T10:35:14.520Z,85.30
2023-05-03T10:38:37.443Z,85.00
2023-05-03T10:42:04.753Z,84.60
2023-05-03T10:45:28.878Z,84.10
2023-05-03T10:49:28.715Z,84.90
2023-05-03T10:52:51.143Z,85.70
2023-05-03T10:56:15.631Z,85.90
2023-05-03T10:59:47.828Z,85.70
2023-05-03T11:03:12.849Z,84.20
2023-05-03T11:06:37.078Z,84.60
2023-05-03T11:09:59.606Z,85.10
2023-05-03T11:13:21.886Z,85.40
2023-05-03T11:16:50.720Z,85.60
2023-05-03T11:20:13.781Z,86.20
2023-05-03T11:23:38.932Z,86.10
2023-05-03T11:27:08.280Z,85.50
2023-05-03T11:30:34.917Z,85.60
2023-05-03T11:33:57.384Z,85.50
2023-05-03T11:37:19.708Z,85.50
2023-05-03T11:40:42.080Z,85.70
2023-05-03T11:44:16.268Z,85.70
2023-05-03T11:47:39.602Z,85.70
2023-05-03T11:51:08.015Z,85.40
2023-05-03T11:54:30.953Z,85.50
2023-05-03T11:57:53.294Z,85.40
2023-05-03T12:01:16.288Z,85.50
2023-05-03T12:04:44.396Z,85.50
2023-05-03T12:08:08.758Z,85.20
2023-05-03T12:11:43.081Z,85.20
2023-05-03T12:15:08.108Z,85.70
2023-05-03T12:18:56.363Z,85.50
2023-05-03T12:22:26.439Z,87.20
2023-05-03T12:25:49.444Z,88.10
2023-05-03T12:29:13.055Z,87.80
2023-05-03T12:32:38.790Z,88.20
2023-05-03T12:36:04.407Z,86.60
2023-05-03T12:39:27.573Z,86.00
2023-05-03T12:42:50.033Z,85.80
2023-05-03T12:46:33.200Z,85.60
2023-05-03T12:49:58.129Z,85.30
2023-05-03T12:56:48.020Z,85.10
2023-05-03T13:00:14.617Z,84.70
2023-05-03T13:03:43.413Z,84.50
2023-05-03T13:07:12.542Z,84.30
2023-05-03T13:10:36.220Z,84.30
2023-05-03T13:13:59.488Z,84.40
2023-05-03T13:17:23.224Z,84.70
2023-05-03T13:20:45.825Z,85.10
2023-05-03T13:24:08.802Z,85.10
2023-05-03T13:27:31.208Z,85.30
2023-05-03T13:30:53.392Z,85.60
2023-05-03T13:34:16.031Z,85.60
2023-05-03T13:37:38.695Z,85.80
2023-05-03T13:41:01.044Z,85.80
2023-05-03T13:44:26.305Z,85.80
2023-05-03T13:48:09.316Z,85.80
2023-05-03T13:51:31.824Z,85.70
2023-05-03T13:54:54.508Z,85.70
2023-05-03T13:58:16.747Z,85.60
2023-05-03T14:01:39.283Z,85.60
2023-05-03T14:05:02.455Z,85.30
2023-05-03T14:08:25.215Z,85.50
2023-05-03T14:11:47.509Z,85.30
2023-05-03T14:15:09.985Z,85.40
2023-05-03T14:18:32.368Z,85.30
2023-05-03T14:21:59.599Z,85.30
2023-05-03T14:25:22.116Z,85.30
2023-05-03T14:28:44.744Z,85.30
2023-05-03T14:32:07.157Z,85.50
2023-05-03T14:35:29.459Z,85.30
2023-05-03T14:38:51.703Z,85.10
2023-05-03T14:42:13.993Z,85.10
2023-05-03T14:45:36.674Z,84.80
2023-05-03T14:48:59.415Z,84.90
2023-05-03T14:52:21.737Z,85.10
2023-05-03T14:55:44.258Z,84.80
2023-05-03T14:59:07.028Z,84.90
2023-05-03T15:02:29.267Z,86.00
2023-05-03T15:05:51.696Z,85.00
2023-05-03T15:09:13.946Z,85.20
2023-05-03T15:12:36.418Z,85.10
2023-05-03T15:15:58.701Z,85.10
2023-05-03T15:19:21.554Z,85.00
2023-05-03T15:22:43.938Z,85.20
2023-05-03T15:26:06.489Z,85.00
2023-05-03T15:29:29.139Z,85.30
2023-05-03T15:32:51.900Z,85.50
2023-05-03T15:36:16.899Z,85.30
2023-05-03T15:39:39.254Z,85.10
2023-05-03T15:43:01.791Z,84.90
2023-05-03T15:46:24.183Z,84.90
2023-05-03T15:49:46.915Z,84.60
2023-05-03T15:53:09.200Z,84.30
2023-05-03T15:56:32.247Z,84.50
2023-05-03T15:59:54.883Z,84.30
2023-05-03T16:03:17.153Z,84.30
2023-05-03T16:06:39.663Z,84.30
2023-05-03T16:10:02.191Z,84.10
2023-05-03T16:13:25.007Z,84.20
2023-05-03T16:16:48.539Z,84.10
2023-05-03T16:20:12.558Z,84.10
2023-05-03T16:23:34.821Z,83.80
2023-05-03T16:26:57.020Z,84.00
2023-05-03T16:30:19.265Z,84.00
2023-05-03T16:33:41.539Z,83.80
2023-05-03T16:37:04.348Z,84.20
2023-05-03T16:40:27.098Z,83.80
2023-05-03T16:43:49.305Z,83.80
2023-05-03T16:47:11.511Z,83.80
2023-05-03T16:50:33.741Z,83.50
2023-05-03T16:53:56.371Z,83.80
2023-05-03T16:57:18.710Z,84.30
2023-05-03T17:00:41.026Z,84.40
2023-05-03T17:04:04.609Z,84.60
2023-05-03T17:07:26.931Z,84.70
2023-05-03T17:10:50.018Z,84.40
2023-05-03T17:14:12.320Z,84.10
2023-05-03T17:17:34.592Z,84.20
2023-05-03T17:21:01.435Z,84.50
2023-05-03T17:24:23.790Z,85.10
2023-05-03T17:27:46.026Z,85.30
2023-05-03T17:31:08.279Z,85.70
2023-05-03T17:34:30.846Z,85.80
2023-05-03T17:37:53.199Z,86.10
2023-05-03T17:41:15.377Z,86.50
2023-05-03T17:44:37.907Z,86.60
2023-05-03T17:48:00.226Z,86.90
2023-05-03T17:51:22.683Z,87.40
2023-05-03T17:54:46.238Z,87.60
2023-05-03T17:58:09.454Z,87.60
2023-05-03T18:01:31.792Z,87.80
2023-05-03T18:04:55.648Z,87.60
2023-05-03T18:08:17.896Z,87.40
2023-05-03T18:11:41.271Z,87.20
2023-05-03T18:15:06.175Z,87.90
2023-05-03T18:18:28.412Z,88.70
2023-05-03T18:21:50.793Z,87.20
2023-05-03T18:25:13.070Z,87.90
2023-05-03T18:28:35.448Z,88.80
2023-05-03T18:31:58.422Z,88.40
2023-05-03T18:35:21.026Z,90.00
2023-05-03T18:38:44.189Z,89.80
2023-05-03T18:42:06.640Z,89.80
2023-05-03T18:45:28.845Z,90.20
2023-05-03T18:48:51.264Z,90.70
2023-05-03T18:52:13.587Z,90.60
2023-05-03T18:55:35.893Z,90.30
2023-05-03T18:58:58.244Z,90.60
2023-05-03T19:02:20.451Z,90.60
2023-05-03T19:05:42.729Z,89.40
2023-05-03T19:09:05.015Z,90.10
2023-05-03T19:12:27.444Z,90.00
2023-05-03T19:15:50.048Z,90.40
2023-05-03T19:19:13.653Z,90.10
2023-05-03T19:22:36.123Z,90.50
2023-05-03T19:25:58.635Z,90.10
2023-05-03T19:29:21.075Z,90.50
2023-05-03T19:32:43.277Z,90.40
2023-05-03T19:36:08.239Z,90.60
2023-05-03T19:39:32.740Z,90.70
2023-05-03T19:42:56.578Z,89.30
2023-05-03T19:46:20.230Z,88.40
2023-05-03T19:49:42.589Z,89.10
2023-05-03T19:53:04.871Z,89.40
2023-05-03T19:56:27.385Z,89.60
2023-05-03T19:59:49.643Z,89.70
2023-05-03T20:03:12.081Z,89.70
2023-05-03T20:06:34.387Z,89.50
2023-05-03T20:09:56.697Z,89.70
2023-05-03T20:13:19.051Z,89.70
2023-05-03T20:16:41.808Z,89.20
2023-05-03T20:20:08.842Z,89.30
2023-05-03T20:23:31.088Z,89.20
2023-05-03T20:26:53.473Z,89.20
2023-05-03T20:30:15.803Z,88.80
2023-05-03T20:33:38.095Z,89.10
2023-05-03T20:37:00.445Z,89.00
2023-05-03T20:40:22.773Z,88.80
2023-05-03T20:43:45.100Z,88.60
2023-05-03T20:47:07.282Z,88.70
2023-05-03T20:50:30.422Z,88.60
2023-05-03T20:53:52.688Z,88.90
2023-05-03T20:57:18.007Z,89.60
2023-05-03T21:00:40.316Z,89.60
2023-05-03T21:04:04.048Z,89.30
2023-05-03T21:07:26.302Z,89.10
2023-05-03T21:10:48.787Z,88.70
2023-05-03T21:14:12.042Z,88.40
2023-05-03T21:17:34.428Z,88.40
2023-05-03T21:20:56.889Z,88.30
2023-05-03T21:24:19.144Z,88.20
2023-05-03T21:27:41.488Z,87.90
2023-05-03T21:31:03.953Z,88.00
2023-05-03T21:34:26.376Z,88.00
2023-05-03T21:37:49.820Z,87.90
2023-05-03T21:41:12.370Z,87.90
2023-05-03T21:44:35.731Z,87.70
2023-05-03T21:47:57.968Z,87.70
2023-05-03T21:51:25.648Z,87.50
2023-05-03T21:54:47.910Z,87.80
2023-05-03T21:58:10.215Z,87.60
2023-05-03T22:01:32.510Z,87.60
2023-05-03T22:04:55.140Z,87.60
2023-05-03T22:08:18.541Z,87.40
2023-05-03T22:11:41.461Z,87.40
2023-05-03T22:15:04.147Z,87.40
2023-05-03T22:18:28.184Z,87.40
2023-05-03T22:21:50.729Z,87.30
2023-05-03T22:25:26.020Z,87.40
2023-05-03T22:28:48.323Z,87.40
2023-05-03T22:32:10.579Z,87.40
2023-05-03T22:35:32.815Z,87.50
2023-05-03T22:39:00.630Z,87.40
2023-05-03T22:42:22.941Z,87.40
2023-05-03T22:45:45.428Z,87.40
2023-05-03T22:49:08.530Z,87.40
2023-05-03T22:52:31.952Z,87.30
2023-05-03T22:56:04.226Z,87.40
2023-05-03T22:59:26.836Z,87.40
2023-05-03T23:02:49.133Z,87.40
2023-05-03T23:06:11.458Z,87.40
2023-05-03T23:09:34.192Z,87.40
2023-05-03T23:12:56.516Z,87.30
2023-05-03T23:16:20.097Z,87.30
2023-05-03T23:19:42.548Z,87.30
2023-05-03T23:23:04.838Z,87.30
2023-05-03T23:26:28.078Z,87.30
2023-05-03T23:29:50.996Z,87.30
2023-05-03T23:33:13.725Z,87.30
2023-05-03T23:36:36.513Z,87.30
2023-05-03T23:39:59.028Z,87.30
2023-05-03T23:43:21.347Z,87.20
2023-05-03T23:46:43.630Z,87.30
2023-05-03T23:50:06.744Z,87.20
2023-05-03T23:53:29.178Z,87.10
2023-05-03T23:56:51.374Z,87.20
